General Aviation Weather

Text Reports

Enter one or more of the following location identifiers separated by a space:

Zip Code, Four-Character ICAO or Three-Character IATA airport codes.

METAR - Aviation Routine Weather Report
KCCR - Concord, California
Updated at 8:53 PM GMT on July 04, 2015 (1:53 PM PDT):
METAR KCCR 042053Z 29010KT 10SM CLR 31/12 A2980 RMK AO2 SLP079 T03110122 56012
TAF - Terminal Area Forecast
KCCR - Concord, California
Updated at 8:53 PM GMT on July 04, 2015 (1:53 PM PDT):
No TAF is currently available for this location.
Decoded:
No decoded TAF is available.
PIREP - Pilot Weather Report
KCCR - Concord, California
Updated at 8:53 PM GMT on July 04, 2015 (1:53 PM PDT):
No PIREP is currently available for this location.
AIRMET - Airmens Meteorological Information
KCCR - Concord, California
Updated at 8:53 PM GMT on July 04, 2015 (1:53 PM PDT):
No AIRMET is currently available for this location.
SIGMET - Significant Meteorological Information
KCCR - Concord, California
Updated at 8:53 PM GMT on July 04, 2015 (1:53 PM PDT):
No SIGMET is currently available for this location.
NOTAM - Notice to Airmen
KCCR - Concord, California
Updated at 8:53 PM GMT on July 04, 2015 (1:53 PM PDT):
No NOTAM is currently available for this location.
Forecast Area
KCCR - Concord, California
Updated at 8:53 PM GMT on July 04, 2015 (1:53 PM PDT):
No NOTAM is currently available for this location.
Aviation Weather Maps